sensor_id;sensor_type;location;lat;lon;timestamp;P1;durP1;ratioP1;P2;durP2;ratioP2
51358;SDS011;37448;51.588;7.248;2023-06-26T00:01:51;7.97;;;6.35;;
51358;SDS011;37448;51.588;7.248;2023-06-26T00:03:51;7.30;;;5.35;;
51358;SDS011;37448;51.588;7.248;2023-06-26T00:05:52;6.63;;;5.93;;
51358;SDS011;37448;51.588;7.248;2023-06-26T00:07:52;7.20;;;5.55;;
51358;SDS011;37448;51.588;7.248;2023-06-26T00:09:52;6.07;;;5.25;;
51358;SDS011;37448;51.588;7.248;2023-06-26T00:11:53;7.55;;;5.75;;
51358;SDS011;37448;51.588;7.248;2023-06-26T00:13:53;6.05;;;4.82;;
51358;SDS011;37448;51.588;7.248;2023-06-26T00:15:54;7.07;;;5.57;;
51358;SDS011;37448;51.588;7.248;2023-06-26T00:17:54;5.68;;;4.43;;
51358;SDS011;37448;51.588;7.248;2023-06-26T00:19:54;6.95;;;5.18;;
51358;SDS011;37448;51.588;7.248;2023-06-26T00:21:55;6.43;;;5.05;;
51358;SDS011;37448;51.588;7.248;2023-06-26T00:23:55;7.32;;;5.18;;
51358;SDS011;37448;51.588;7.248;2023-06-26T00:25:56;5.07;;;4.57;;
51358;SDS011;37448;51.588;7.248;2023-06-26T00:27:56;4.85;;;4.05;;
51358;SDS011;37448;51.588;7.248;2023-06-26T00:29:56;9.65;;;5.32;;
51358;SDS011;37448;51.588;7.248;2023-06-26T00:31:58;7.03;;;5.93;;
51358;SDS011;37448;51.588;7.248;2023-06-26T00:33:58;8.00;;;4.93;;
51358;SDS011;37448;51.588;7.248;2023-06-26T00:35:59;6.03;;;5.28;;
51358;SDS011;37448;51.588;7.248;2023-06-26T00:37:59;7.20;;;5.53;;
51358;SDS011;37448;51.588;7.248;2023-06-26T00:40:00;6.97;;;5.57;;
51358;SDS011;37448;51.588;7.248;2023-06-26T00:42:00;5.47;;;4.72;;
51358;SDS011;37448;51.588;7.248;2023-06-26T00:44:00;6.63;;;5.00;;
51358;SDS011;37448;51.588;7.248;2023-06-26T00:46:01;6.43;;;5.40;;
51358;SDS011;37448;51.588;7.248;2023-06-26T00:48:01;6.13;;;4.85;;
51358;SDS011;37448;51.588;7.248;2023-06-26T00:50:03;7.28;;;6.07;;
51358;SDS011;37448;51.588;7.248;2023-06-26T00:52:04;6.68;;;5.07;;
51358;SDS011;37448;51.588;7.248;2023-06-26T00:54:05;9.25;;;5.78;;
51358;SDS011;37448;51.588;7.248;2023-06-26T00:56:06;7.32;;;5.57;;
51358;SDS011;37448;51.588;7.248;2023-06-26T00:58:10;6.10;;;5.50;;
51358;SDS011;37448;51.588;7.248;2023-06-26T01:00:11;8.32;;;6.03;;
51358;SDS011;37448;51.588;7.248;2023-06-26T01:02:13;6.20;;;5.35;;
51358;SDS011;37448;51.588;7.248;2023-06-26T01:04:19;7.15;;;5.47;;
51358;SDS011;37448;51.588;7.248;2023-06-26T01:06:21;7.30;;;5.60;;
51358;SDS011;37448;51.588;7.248;2023-06-26T01:08:23;6.93;;;5.53;;
51358;SDS011;37448;51.588;7.248;2023-06-26T01:10:24;8.02;;;6.00;;
51358;SDS011;37448;51.588;7.248;2023-06-26T01:12:27;6.88;;;5.38;;
51358;SDS011;37448;51.588;7.248;2023-06-26T01:14:28;5.95;;;5.35;;
51358;SDS011;37448;51.588;7.248;2023-06-26T01:16:28;7.00;;;5.65;;
51358;SDS011;37448;51.588;7.248;2023-06-26T01:18:30;7.75;;;5.25;;
51358;SDS011;37448;51.588;7.248;2023-06-26T01:20:35;6.53;;;5.10;;
51358;SDS011;37448;51.588;7.248;2023-06-26T01:22:46;6.40;;;4.93;;
51358;SDS011;37448;51.588;7.248;2023-06-26T01:27:20;6.68;;;5.93;;
51358;SDS011;37448;51.588;7.248;2023-06-26T01:29:22;6.05;;;5.07;;
51358;SDS011;37448;51.588;7.248;2023-06-26T01:31:25;6.25;;;5.32;;
51358;SDS011;37448;51.588;7.248;2023-06-26T01:33:28;8.55;;;6.28;;
51358;SDS011;37448;51.588;7.248;2023-06-26T01:35:29;7.65;;;5.22;;
51358;SDS011;37448;51.588;7.248;2023-06-26T01:37:30;7.95;;;5.55;;
51358;SDS011;37448;51.588;7.248;2023-06-26T01:39:30;8.48;;;6.28;;
51358;SDS011;37448;51.588;7.248;2023-06-26T01:41:31;7.35;;;5.53;;
51358;SDS011;37448;51.588;7.248;2023-06-26T01:45:43;7.68;;;5.85;;
51358;SDS011;37448;51.588;7.248;2023-06-26T01:47:49;11.38;;;6.15;;
51358;SDS011;37448;51.588;7.248;2023-06-26T01:52:23;6.80;;;5.30;;
51358;SDS011;37448;51.588;7.248;2023-06-26T01:54:29;6.45;;;5.57;;
51358;SDS011;37448;51.588;7.248;2023-06-26T01:56:32;6.45;;;5.32;;
51358;SDS011;37448;51.588;7.248;2023-06-26T01:58:33;10.02;;;5.32;;
51358;SDS011;37448;51.588;7.248;2023-06-26T02:00:35;7.82;;;5.50;;
51358;SDS011;37448;51.588;7.248;2023-06-26T02:02:37;7.85;;;5.72;;
51358;SDS011;37448;51.588;7.248;2023-06-26T02:04:37;11.18;;;6.70;;
51358;SDS011;37448;51.588;7.248;2023-06-26T02:06:39;7.13;;;5.78;;
51358;SDS011;37448;51.588;7.248;2023-06-26T02:08:40;6.30;;;5.70;;
51358;SDS011;37448;51.588;7.248;2023-06-26T02:10:41;9.07;;;5.88;;
51358;SDS011;37448;51.588;7.248;2023-06-26T02:12:41;7.10;;;5.55;;
51358;SDS011;37448;51.588;7.248;2023-06-26T02:14:42;8.95;;;6.03;;
51358;SDS011;37448;51.588;7.248;2023-06-26T02:16:43;7.18;;;5.50;;
51358;SDS011;37448;51.588;7.248;2023-06-26T02:18:43;6.88;;;5.45;;
51358;SDS011;37448;51.588;7.248;2023-06-26T02:20:43;9.25;;;5.47;;
51358;SDS011;37448;51.588;7.248;2023-06-26T02:22:44;8.23;;;5.63;;
51358;SDS011;37448;51.588;7.248;2023-06-26T02:24:44;7.05;;;5.55;;
51358;SDS011;37448;51.588;7.248;2023-06-26T02:26:45;10.73;;;6.15;;
51358;SDS011;37448;51.588;7.248;2023-06-26T02:28:45;8.35;;;6.30;;
51358;SDS011;37448;51.588;7.248;2023-06-26T02:30:46;8.73;;;6.03;;
51358;SDS011;37448;51.588;7.248;2023-06-26T02:32:46;10.77;;;6.28;;
51358;SDS011;37448;51.588;7.248;2023-06-26T02:34:47;11.25;;;7.38;;
51358;SDS011;37448;51.588;7.248;2023-06-26T02:36:47;12.35;;;8.13;;
51358;SDS011;37448;51.588;7.248;2023-06-26T02:38:48;10.40;;;6.57;;
51358;SDS011;37448;51.588;7.248;2023-06-26T02:40:48;10.73;;;6.68;;
51358;SDS011;37448;51.588;7.248;2023-06-26T02:42:50;9.68;;;6.28;;
51358;SDS011;37448;51.588;7.248;2023-06-26T02:44:51;8.68;;;6.47;;
51358;SDS011;37448;51.588;7.248;2023-06-26T02:46:52;9.85;;;6.28;;
51358;SDS011;37448;51.588;7.248;2023-06-26T02:48:53;10.82;;;6.45;;
51358;SDS011;37448;51.588;7.248;2023-06-26T02:50:53;7.30;;;5.63;;
51358;SDS011;37448;51.588;7.248;2023-06-26T02:53:00;11.25;;;6.57;;
51358;SDS011;37448;51.588;7.248;2023-06-26T02:55:00;9.63;;;6.30;;
51358;SDS011;37448;51.588;7.248;2023-06-26T02:57:01;9.13;;;6.28;;
51358;SDS011;37448;51.588;7.248;2023-06-26T02:59:04;8.50;;;6.10;;
51358;SDS011;37448;51.588;7.248;2023-06-26T03:01:04;9.68;;;5.78;;
51358;SDS011;37448;51.588;7.248;2023-06-26T03:03:04;8.68;;;5.90;;
51358;SDS011;37448;51.588;7.248;2023-06-26T03:05:05;7.80;;;5.30;;
51358;SDS011;37448;51.588;7.248;2023-06-26T03:07:06;6.35;;;4.85;;
51358;SDS011;37448;51.588;7.248;2023-06-26T03:09:06;5.40;;;4.00;;
51358;SDS011;37448;51.588;7.248;2023-06-26T03:11:07;8.05;;;4.88;;
51358;SDS011;37448;51.588;7.248;2023-06-26T03:13:09;5.55;;;4.43;;
51358;SDS011;37448;51.588;7.248;2023-06-26T03:15:09;7.75;;;4.82;;
51358;SDS011;37448;51.588;7.248;2023-06-26T03:17:12;6.43;;;4.70;;
51358;SDS011;37448;51.588;7.248;2023-06-26T03:19:14;5.65;;;4.10;;
51358;SDS011;37448;51.588;7.248;2023-06-26T03:21:43;6.15;;;4.95;;
51358;SDS011;37448;51.588;7.248;2023-06-26T03:23:44;6.72;;;4.53;;
51358;SDS011;37448;51.588;7.248;2023-06-26T03:25:45;7.32;;;4.68;;
51358;SDS011;37448;51.588;7.248;2023-06-26T03:27:59;5.45;;;4.05;;
51358;SDS011;37448;51.588;7.248;2023-06-26T03:30:00;5.18;;;4.10;;
51358;SDS011;37448;51.588;7.248;2023-06-26T03:32:01;7.00;;;4.72;;
51358;SDS011;37448;51.588;7.248;2023-06-26T03:34:01;5.40;;;4.50;;
51358;SDS011;37448;51.588;7.248;2023-06-26T03:36:02;6.82;;;5.53;;
51358;SDS011;37448;51.588;7.248;2023-06-26T03:38:03;5.20;;;4.00;;
51358;SDS011;37448;51.588;7.248;2023-06-26T03:40:04;4.90;;;4.40;;
51358;SDS011;37448;51.588;7.248;2023-06-26T03:42:05;6.38;;;4.50;;
51358;SDS011;37448;51.588;7.248;2023-06-26T03:44:06;5.95;;;3.92;;
51358;SDS011;37448;51.588;7.248;2023-06-26T03:46:15;5.75;;;4.30;;
51358;SDS011;37448;51.588;7.248;2023-06-26T03:48:16;7.28;;;4.63;;
51358;SDS011;37448;51.588;7.248;2023-06-26T03:50:16;6.00;;;4.38;;
51358;SDS011;37448;51.588;7.248;2023-06-26T03:52:17;8.10;;;4.78;;
51358;SDS011;37448;51.588;7.248;2023-06-26T03:54:19;5.57;;;4.65;;
51358;SDS011;37448;51.588;7.248;2023-06-26T03:56:19;5.43;;;4.55;;
51358;SDS011;37448;51.588;7.248;2023-06-26T03:58:20;6.25;;;4.70;;
51358;SDS011;37448;51.588;7.248;2023-06-26T04:00:20;5.53;;;4.72;;
51358;SDS011;37448;51.588;7.248;2023-06-26T04:02:20;4.88;;;4.35;;
51358;SDS011;37448;51.588;7.248;2023-06-26T04:04:21;6.55;;;4.63;;
51358;SDS011;37448;51.588;7.248;2023-06-26T04:06:22;5.55;;;4.45;;
51358;SDS011;37448;51.588;7.248;2023-06-26T04:08:23;6.97;;;4.72;;
51358;SDS011;37448;51.588;7.248;2023-06-26T04:10:26;5.05;;;4.55;;
51358;SDS011;37448;51.588;7.248;2023-06-26T04:12:27;7.85;;;4.95;;
51358;SDS011;37448;51.588;7.248;2023-06-26T04:14:27;8.23;;;5.65;;
51358;SDS011;37448;51.588;7.248;2023-06-26T04:16:28;5.75;;;4.35;;
51358;SDS011;37448;51.588;7.248;2023-06-26T04:18:28;7.18;;;5.50;;
51358;SDS011;37448;51.588;7.248;2023-06-26T04:20:29;7.35;;;4.88;;
51358;SDS011;37448;51.588;7.248;2023-06-26T04:22:29;6.30;;;4.95;;
51358;SDS011;37448;51.588;7.248;2023-06-26T04:24:29;7.45;;;4.93;;
51358;SDS011;37448;51.588;7.248;2023-06-26T04:26:30;8.55;;;5.30;;
51358;SDS011;37448;51.588;7.248;2023-06-26T04:28:31;6.97;;;5.70;;
51358;SDS011;37448;51.588;7.248;2023-06-26T04:30:32;7.10;;;5.20;;
51358;SDS011;37448;51.588;7.248;2023-06-26T04:32:32;8.43;;;5.72;;
51358;SDS011;37448;51.588;7.248;2023-06-26T04:34:33;10.35;;;6.00;;
51358;SDS011;37448;51.588;7.248;2023-06-26T04:36:34;7.40;;;5.22;;
51358;SDS011;37448;51.588;7.248;2023-06-26T04:38:38;9.93;;;6.72;;
51358;SDS011;37448;51.588;7.248;2023-06-26T04:40:39;8.85;;;5.82;;
51358;SDS011;37448;51.588;7.248;2023-06-26T04:42:39;7.70;;;5.35;;
51358;SDS011;37448;51.588;7.248;2023-06-26T04:44:40;6.88;;;5.28;;
51358;SDS011;37448;51.588;7.248;2023-06-26T04:46:41;7.30;;;5.75;;
51358;SDS011;37448;51.588;7.248;2023-06-26T04:48:41;7.72;;;5.70;;
51358;SDS011;37448;51.588;7.248;2023-06-26T04:50:42;9.15;;;5.80;;
51358;SDS011;37448;51.588;7.248;2023-06-26T04:52:43;7.10;;;5.53;;
51358;SDS011;37448;51.588;7.248;2023-06-26T04:54:43;7.13;;;5.05;;
51358;SDS011;37448;51.588;7.248;2023-06-26T04:56:43;6.30;;;5.30;;
51358;SDS011;37448;51.588;7.248;2023-06-26T04:58:47;7.10;;;5.57;;
51358;SDS011;37448;51.588;7.248;2023-06-26T05:00:47;6.80;;;5.35;;
51358;SDS011;37448;51.588;7.248;2023-06-26T05:02:51;7.03;;;5.60;;
51358;SDS011;37448;51.588;7.248;2023-06-26T05:05:00;9.82;;;6.18;;
51358;SDS011;37448;51.588;7.248;2023-06-26T05:07:01;7.97;;;5.60;;
51358;SDS011;37448;51.588;7.248;2023-06-26T05:09:01;8.88;;;5.30;;
51358;SDS011;37448;51.588;7.248;2023-06-26T05:11:02;6.88;;;4.88;;
51358;SDS011;37448;51.588;7.248;2023-06-26T05:13:02;5.80;;;4.85;;
51358;SDS011;37448;51.588;7.248;2023-06-26T05:15:03;7.32;;;5.35;;
51358;SDS011;37448;51.588;7.248;2023-06-26T05:17:03;6.22;;;5.00;;
51358;SDS011;37448;51.588;7.248;2023-06-26T05:19:04;8.20;;;5.15;;
51358;SDS011;37448;51.588;7.248;2023-06-26T05:21:04;6.72;;;5.07;;
51358;SDS011;37448;51.588;7.248;2023-06-26T05:23:05;5.78;;;4.30;;
51358;SDS011;37448;51.588;7.248;2023-06-26T05:25:07;7.18;;;4.30;;
51358;SDS011;37448;51.588;7.248;2023-06-26T05:27:09;5.63;;;4.07;;
51358;SDS011;37448;51.588;7.248;2023-06-26T05:29:10;6.13;;;4.28;;
51358;SDS011;37448;51.588;7.248;2023-06-26T05:31:10;7.55;;;4.57;;
51358;SDS011;37448;51.588;7.248;2023-06-26T05:33:11;5.05;;;4.10;;
51358;SDS011;37448;51.588;7.248;2023-06-26T05:35:12;6.28;;;4.47;;
51358;SDS011;37448;51.588;7.248;2023-06-26T05:37:14;8.50;;;4.88;;
51358;SDS011;37448;51.588;7.248;2023-06-26T05:39:21;6.80;;;4.43;;
51358;SDS011;37448;51.588;7.248;2023-06-26T05:41:21;7.93;;;4.32;;
51358;SDS011;37448;51.588;7.248;2023-06-26T05:43:22;7.45;;;5.10;;
51358;SDS011;37448;51.588;7.248;2023-06-26T05:45:23;6.93;;;4.53;;
51358;SDS011;37448;51.588;7.248;2023-06-26T05:47:23;7.22;;;4.50;;
51358;SDS011;37448;51.588;7.248;2023-06-26T05:49:24;10.13;;;4.38;;
51358;SDS011;37448;51.588;7.248;2023-06-26T05:51:24;7.95;;;4.55;;
51358;SDS011;37448;51.588;7.248;2023-06-26T05:53:25;6.28;;;4.47;;
51358;SDS011;37448;51.588;7.248;2023-06-26T05:55:25;6.90;;;4.80;;
51358;SDS011;37448;51.588;7.248;2023-06-26T05:57:26;5.95;;;4.28;;
51358;SDS011;37448;51.588;7.248;2023-06-26T05:59:27;10.50;;;4.18;;
51358;SDS011;37448;51.588;7.248;2023-06-26T06:01:31;6.30;;;4.18;;
51358;SDS011;37448;51.588;7.248;2023-06-26T06:03:33;7.70;;;4.20;;
51358;SDS011;37448;51.588;7.248;2023-06-26T06:05:33;6.20;;;3.85;;
51358;SDS011;37448;51.588;7.248;2023-06-26T06:07:34;7.47;;;4.07;;
51358;SDS011;37448;51.588;7.248;2023-06-26T06:09:35;5.40;;;3.95;;
51358;SDS011;37448;51.588;7.248;2023-06-26T06:11:36;8.88;;;4.00;;
51358;SDS011;37448;51.588;7.248;2023-06-26T06:13:37;5.82;;;4.03;;
51358;SDS011;37448;51.588;7.248;2023-06-26T06:15:37;7.55;;;3.97;;
51358;SDS011;37448;51.588;7.248;2023-06-26T06:17:38;7.72;;;3.75;;
51358;SDS011;37448;51.588;7.248;2023-06-26T06:19:38;7.25;;;4.35;;
51358;SDS011;37448;51.588;7.248;2023-06-26T06:21:39;8.90;;;4.07;;
51358;SDS011;37448;51.588;7.248;2023-06-26T06:23:39;6.78;;;3.80;;
51358;SDS011;37448;51.588;7.248;2023-06-26T06:25:40;5.95;;;3.83;;
51358;SDS011;37448;51.588;7.248;2023-06-26T06:27:40;6.63;;;4.20;;
51358;SDS011;37448;51.588;7.248;2023-06-26T06:29:41;6.28;;;3.85;;
51358;SDS011;37448;51.588;7.248;2023-06-26T06:31:41;8.13;;;3.58;;
51358;SDS011;37448;51.588;7.248;2023-06-26T06:33:42;8.63;;;4.63;;
51358;SDS011;37448;51.588;7.248;2023-06-26T06:35:42;9.93;;;4.03;;
51358;SDS011;37448;51.588;7.248;2023-06-26T06:37:43;6.68;;;3.65;;
51358;SDS011;37448;51.588;7.248;2023-06-26T06:39:43;6.53;;;3.88;;
51358;SDS011;37448;51.588;7.248;2023-06-26T06:41:43;7.57;;;4.15;;
51358;SDS011;37448;51.588;7.248;2023-06-26T06:43:45;6.85;;;3.63;;
51358;SDS011;37448;51.588;7.248;2023-06-26T06:45:46;7.97;;;3.83;;
51358;SDS011;37448;51.588;7.248;2023-06-26T06:47:46;6.38;;;3.88;;
51358;SDS011;37448;51.588;7.248;2023-06-26T06:49:47;11.23;;;4.28;;
51358;SDS011;37448;51.588;7.248;2023-06-26T06:51:47;11.80;;;4.75;;
51358;SDS011;37448;51.588;7.248;2023-06-26T06:53:47;10.60;;;4.03;;
51358;SDS011;37448;51.588;7.248;2023-06-26T06:55:48;5.88;;;4.00;;
51358;SDS011;37448;51.588;7.248;2023-06-26T06:57:49;8.15;;;4.47;;
51358;SDS011;37448;51.588;7.248;2023-06-26T06:59:50;7.57;;;4.40;;
51358;SDS011;37448;51.588;7.248;2023-06-26T07:01:50;10.57;;;5.00;;
51358;SDS011;37448;51.588;7.248;2023-06-26T07:03:51;7.72;;;4.95;;
51358;SDS011;37448;51.588;7.248;2023-06-26T07:05:52;11.15;;;4.30;;
51358;SDS011;37448;51.588;7.248;2023-06-26T07:07:52;6.88;;;3.97;;
51358;SDS011;37448;51.588;7.248;2023-06-26T07:09:52;8.52;;;3.88;;
51358;SDS011;37448;51.588;7.248;2023-06-26T07:11:53;8.88;;;4.63;;
51358;SDS011;37448;51.588;7.248;2023-06-26T07:13:54;6.70;;;3.92;;
51358;SDS011;37448;51.588;7.248;2023-06-26T07:15:55;6.55;;;4.35;;
51358;SDS011;37448;51.588;7.248;2023-06-26T07:17:55;9.60;;;4.68;;
51358;SDS011;37448;51.588;7.248;2023-06-26T07:19:56;14.50;;;4.50;;
51358;SDS011;37448;51.588;7.248;2023-06-26T07:21:56;10.07;;;4.05;;
51358;SDS011;37448;51.588;7.248;2023-06-26T07:23:57;11.85;;;4.72;;
51358;SDS011;37448;51.588;7.248;2023-06-26T07:25:57;9.07;;;3.85;;
51358;SDS011;37448;51.588;7.248;2023-06-26T07:27:58;15.15;;;4.78;;
51358;SDS011;37448;51.588;7.248;2023-06-26T07:29:58;8.82;;;4.65;;
51358;SDS011;37448;51.588;7.248;2023-06-26T07:31:58;6.60;;;4.13;;
51358;SDS011;37448;51.588;7.248;2023-06-26T07:33:59;9.63;;;4.50;;
51358;SDS011;37448;51.588;7.248;2023-06-26T07:35:59;10.75;;;4.32;;
51358;SDS011;37448;51.588;7.248;2023-06-26T07:38:00;8.55;;;4.22;;
51358;SDS011;37448;51.588;7.248;2023-06-26T07:40:00;8.77;;;4.25;;
51358;SDS011;37448;51.588;7.248;2023-06-26T07:42:01;10.75;;;5.35;;
51358;SDS011;37448;51.588;7.248;2023-06-26T07:44:01;10.30;;;4.72;;
51358;SDS011;37448;51.588;7.248;2023-06-26T07:46:02;9.57;;;4.68;;
51358;SDS011;37448;51.588;7.248;2023-06-26T07:48:02;6.90;;;4.72;;
51358;SDS011;37448;51.588;7.248;2023-06-26T07:50:03;8.52;;;5.00;;
51358;SDS011;37448;51.588;7.248;2023-06-26T07:52:03;7.55;;;4.95;;
51358;SDS011;37448;51.588;7.248;2023-06-26T07:54:04;12.15;;;5.40;;
51358;SDS011;37448;51.588;7.248;2023-06-26T07:56:05;8.90;;;5.15;;
51358;SDS011;37448;51.588;7.248;2023-06-26T07:58:06;9.55;;;5.13;;
51358;SDS011;37448;51.588;7.248;2023-06-26T08:00:07;7.28;;;4.95;;
51358;SDS011;37448;51.588;7.248;2023-06-26T08:02:17;8.50;;;4.75;;
51358;SDS011;37448;51.588;7.248;2023-06-26T08:04:18;8.55;;;5.03;;
51358;SDS011;37448;51.588;7.248;2023-06-26T08:06:20;6.72;;;4.15;;
51358;SDS011;37448;51.588;7.248;2023-06-26T08:08:20;10.30;;;4.78;;
51358;SDS011;37448;51.588;7.248;2023-06-26T08:10:20;10.80;;;5.47;;
51358;SDS011;37448;51.588;7.248;2023-06-26T08:12:21;8.23;;;4.68;;
51358;SDS011;37448;51.588;7.248;2023-06-26T08:14:21;12.95;;;4.82;;
51358;SDS011;37448;51.588;7.248;2023-06-26T08:16:22;8.48;;;4.80;;
51358;SDS011;37448;51.588;7.248;2023-06-26T08:18:22;8.70;;;4.65;;
51358;SDS011;37448;51.588;7.248;2023-06-26T08:20:23;11.02;;;4.50;;
51358;SDS011;37448;51.588;7.248;2023-06-26T08:22:23;9.88;;;4.80;;
51358;SDS011;37448;51.588;7.248;2023-06-26T08:24:24;9.90;;;4.90;;
51358;SDS011;37448;51.588;7.248;2023-06-26T08:26:24;12.02;;;4.93;;
51358;SDS011;37448;51.588;7.248;2023-06-26T08:28:24;12.93;;;4.65;;
51358;SDS011;37448;51.588;7.248;2023-06-26T08:30:25;9.00;;;4.65;;
51358;SDS011;37448;51.588;7.248;2023-06-26T08:32:28;9.38;;;5.03;;
51358;SDS011;37448;51.588;7.248;2023-06-26T08:34:28;7.55;;;4.15;;
51358;SDS011;37448;51.588;7.248;2023-06-26T08:36:29;7.45;;;4.10;;
51358;SDS011;37448;51.588;7.248;2023-06-26T08:38:29;11.23;;;4.57;;
51358;SDS011;37448;51.588;7.248;2023-06-26T08:40:30;9.07;;;4.95;;
51358;SDS011;37448;51.588;7.248;2023-06-26T08:42:31;8.20;;;4.30;;
51358;SDS011;37448;51.588;7.248;2023-06-26T08:44:32;8.13;;;4.45;;
51358;SDS011;37448;51.588;7.248;2023-06-26T08:46:32;7.45;;;3.67;;
51358;SDS011;37448;51.588;7.248;2023-06-26T08:48:34;7.18;;;3.70;;
51358;SDS011;37448;51.588;7.248;2023-06-26T08:50:36;8.25;;;4.03;;
51358;SDS011;37448;51.588;7.248;2023-06-26T08:54:50;10.65;;;4.70;;
51358;SDS011;37448;51.588;7.248;2023-06-26T08:56:54;7.55;;;4.00;;
51358;SDS011;37448;51.588;7.248;2023-06-26T08:58:57;8.48;;;3.97;;
51358;SDS011;37448;51.588;7.248;2023-06-26T09:00:58;9.10;;;4.15;;
51358;SDS011;37448;51.588;7.248;2023-06-26T09:02:59;6.88;;;4.10;;
51358;SDS011;37448;51.588;7.248;2023-06-26T09:05:00;7.00;;;3.70;;
51358;SDS011;37448;51.588;7.248;2023-06-26T09:07:01;6.88;;;3.67;;
51358;SDS011;37448;51.588;7.248;2023-06-26T09:09:02;8.48;;;4.00;;
51358;SDS011;37448;51.588;7.248;2023-06-26T09:11:03;7.50;;;4.40;;
51358;SDS011;37448;51.588;7.248;2023-06-26T09:13:04;8.10;;;4.05;;
51358;SDS011;37448;51.588;7.248;2023-06-26T09:15:05;8.48;;;3.92;;
51358;SDS011;37448;51.588;7.248;2023-06-26T09:17:06;8.43;;;3.72;;
51358;SDS011;37448;51.588;7.248;2023-06-26T09:19:10;8.27;;;4.28;;
51358;SDS011;37448;51.588;7.248;2023-06-26T09:21:12;5.93;;;3.28;;
51358;SDS011;37448;51.588;7.248;2023-06-26T09:23:13;9.10;;;3.63;;
51358;SDS011;37448;51.588;7.248;2023-06-26T09:25:13;5.07;;;3.63;;
51358;SDS011;37448;51.588;7.248;2023-06-26T09:27:14;9.15;;;4.03;;
51358;SDS011;37448;51.588;7.248;2023-06-26T09:29:16;12.70;;;3.70;;
51358;SDS011;37448;51.588;7.248;2023-06-26T09:31:18;10.35;;;4.57;;
51358;SDS011;37448;51.588;7.248;2023-06-26T09:33:21;5.55;;;3.30;;
51358;SDS011;37448;51.588;7.248;2023-06-26T09:35:21;8.02;;;3.00;;
51358;SDS011;37448;51.588;7.248;2023-06-26T09:37:21;7.38;;;3.58;;
51358;SDS011;37448;51.588;7.248;2023-06-26T09:39:25;7.50;;;4.00;;
51358;SDS011;37448;51.588;7.248;2023-06-26T09:41:25;6.13;;;3.35;;
51358;SDS011;37448;51.588;7.248;2023-06-26T09:43:26;6.85;;;3.65;;
51358;SDS011;37448;51.588;7.248;2023-06-26T09:45:27;10.10;;;3.92;;
51358;SDS011;37448;51.588;7.248;2023-06-26T09:47:29;6.88;;;3.92;;
51358;SDS011;37448;51.588;7.248;2023-06-26T09:49:30;5.93;;;3.10;;
51358;SDS011;37448;51.588;7.248;2023-06-26T09:51:31;7.15;;;3.22;;
51358;SDS011;37448;51.588;7.248;2023-06-26T09:53:34;7.10;;;3.33;;
51358;SDS011;37448;51.588;7.248;2023-06-26T09:55:35;3.33;;;2.42;;
51358;SDS011;37448;51.588;7.248;2023-06-26T09:57:37;5.80;;;3.40;;
51358;SDS011;37448;51.588;7.248;2023-06-26T09:59:38;8.13;;;3.78;;
51358;SDS011;37448;51.588;7.248;2023-06-26T10:01:40;6.70;;;3.08;;
51358;SDS011;37448;51.588;7.248;2023-06-26T10:03:42;8.05;;;2.83;;
51358;SDS011;37448;51.588;7.248;2023-06-26T10:05:43;5.65;;;2.95;;
51358;SDS011;37448;51.588;7.248;2023-06-26T10:07:45;6.60;;;3.00;;
51358;SDS011;37448;51.588;7.248;2023-06-26T10:09:46;6.85;;;3.30;;
51358;SDS011;37448;51.588;7.248;2023-06-26T10:11:51;5.45;;;3.25;;
51358;SDS011;37448;51.588;7.248;2023-06-26T10:13:56;4.03;;;2.47;;
51358;SDS011;37448;51.588;7.248;2023-06-26T10:15:59;5.72;;;3.13;;
51358;SDS011;37448;51.588;7.248;2023-06-26T10:18:01;5.05;;;2.80;;
51358;SDS011;37448;51.588;7.248;2023-06-26T10:20:02;4.63;;;2.55;;
51358;SDS011;37448;51.588;7.248;2023-06-26T10:22:03;4.85;;;2.53;;
51358;SDS011;37448;51.588;7.248;2023-06-26T10:24:05;6.22;;;2.63;;
51358;SDS011;37448;51.588;7.248;2023-06-26T10:26:06;4.95;;;2.40;;
51358;SDS011;37448;51.588;7.248;2023-06-26T10:28:08;5.32;;;2.85;;
51358;SDS011;37448;51.588;7.248;2023-06-26T10:30:13;5.95;;;3.30;;
51358;SDS011;37448;51.588;7.248;2023-06-26T10:32:16;4.78;;;2.72;;
51358;SDS011;37448;51.588;7.248;2023-06-26T10:34:19;7.32;;;2.85;;
51358;SDS011;37448;51.588;7.248;2023-06-26T10:36:26;3.97;;;2.65;;
51358;SDS011;37448;51.588;7.248;2023-06-26T10:38:47;5.30;;;2.90;;
51358;SDS011;37448;51.588;7.248;2023-06-26T10:40:49;4.88;;;2.60;;
51358;SDS011;37448;51.588;7.248;2023-06-26T10:42:50;5.75;;;2.30;;
51358;SDS011;37448;51.588;7.248;2023-06-26T10:44:50;4.35;;;2.30;;
51358;SDS011;37448;51.588;7.248;2023-06-26T10:46:52;6.80;;;2.47;;
51358;SDS011;37448;51.588;7.248;2023-06-26T10:48:57;6.30;;;2.60;;
51358;SDS011;37448;51.588;7.248;2023-06-26T10:51:04;3.05;;;2.30;;
51358;SDS011;37448;51.588;7.248;2023-06-26T10:55:28;6.45;;;2.65;;
51358;SDS011;37448;51.588;7.248;2023-06-26T10:57:29;4.05;;;2.22;;
51358;SDS011;37448;51.588;7.248;2023-06-26T10:59:30;3.97;;;1.92;;
51358;SDS011;37448;51.588;7.248;2023-06-26T11:01:32;4.85;;;2.22;;
51358;SDS011;37448;51.588;7.248;2023-06-26T11:03:41;6.28;;;2.10;;
51358;SDS011;37448;51.588;7.248;2023-06-26T11:05:44;9.98;;;2.83;;
51358;SDS011;37448;51.588;7.248;2023-06-26T11:08:02;2.67;;;2.25;;
51358;SDS011;37448;51.588;7.248;2023-06-26T11:10:16;6.43;;;2.80;;
51358;SDS011;37448;51.588;7.248;2023-06-26T11:12:26;3.70;;;2.25;;
51358;SDS011;37448;51.588;7.248;2023-06-26T11:14:34;6.65;;;2.70;;
51358;SDS011;37448;51.588;7.248;2023-06-26T11:16:35;7.50;;;2.55;;
51358;SDS011;37448;51.588;7.248;2023-06-26T11:18:36;8.13;;;3.13;;
51358;SDS011;37448;51.588;7.248;2023-06-26T11:20:37;6.00;;;2.47;;
51358;SDS011;37448;51.588;7.248;2023-06-26T11:22:39;7.75;;;2.78;;
51358;SDS011;37448;51.588;7.248;2023-06-26T11:24:41;3.28;;;2.08;;
51358;SDS011;37448;51.588;7.248;2023-06-26T11:26:44;5.53;;;3.22;;
51358;SDS011;37448;51.588;7.248;2023-06-26T11:28:52;4.80;;;2.58;;
51358;SDS011;37448;51.588;7.248;2023-06-26T11:30:55;4.18;;;2.60;;
51358;SDS011;37448;51.588;7.248;2023-06-26T11:33:05;4.65;;;2.45;;
51358;SDS011;37448;51.588;7.248;2023-06-26T11:35:07;3.92;;;2.53;;
51358;SDS011;37448;51.588;7.248;2023-06-26T11:37:09;3.72;;;1.83;;
51358;SDS011;37448;51.588;7.248;2023-06-26T11:39:11;4.50;;;2.45;;
51358;SDS011;37448;51.588;7.248;2023-06-26T11:41:16;5.40;;;2.03;;
51358;SDS011;37448;51.588;7.248;2023-06-26T11:43:17;4.05;;;2.00;;
51358;SDS011;37448;51.588;7.248;2023-06-26T11:45:18;6.68;;;1.90;;
51358;SDS011;37448;51.588;7.248;2023-06-26T11:47:20;3.80;;;2.10;;
51358;SDS011;37448;51.588;7.248;2023-06-26T11:49:21;2.85;;;1.75;;
51358;SDS011;37448;51.588;7.248;2023-06-26T11:51:23;3.67;;;1.73;;
51358;SDS011;37448;51.588;7.248;2023-06-26T11:53:26;3.78;;;1.52;;
51358;SDS011;37448;51.588;7.248;2023-06-26T11:55:27;2.95;;;1.55;;
51358;SDS011;37448;51.588;7.248;2023-06-26T11:57:27;3.78;;;1.92;;
51358;SDS011;37448;51.588;7.248;2023-06-26T11:59:39;4.28;;;1.70;;
51358;SDS011;37448;51.588;7.248;2023-06-26T12:01:43;3.55;;;2.03;;
51358;SDS011;37448;51.588;7.248;2023-06-26T12:03:44;2.85;;;1.50;;
51358;SDS011;37448;51.588;7.248;2023-06-26T12:05:45;2.95;;;1.80;;
51358;SDS011;37448;51.588;7.248;2023-06-26T12:07:47;1.80;;;1.30;;
51358;SDS011;37448;51.588;7.248;2023-06-26T12:09:48;2.83;;;1.42;;
51358;SDS011;37448;51.588;7.248;2023-06-26T12:11:51;1.92;;;1.13;;
51358;SDS011;37448;51.588;7.248;2023-06-26T12:13:54;3.70;;;1.50;;
51358;SDS011;37448;51.588;7.248;2023-06-26T12:15:54;3.03;;;1.33;;
51358;SDS011;37448;51.588;7.248;2023-06-26T12:17:55;2.70;;;1.60;;
51358;SDS011;37448;51.588;7.248;2023-06-26T12:19:55;5.80;;;1.50;;
51358;SDS011;37448;51.588;7.248;2023-06-26T12:21:56;1.95;;;1.25;;
51358;SDS011;37448;51.588;7.248;2023-06-26T12:24:00;5.95;;;1.55;;